Time;durP1;ratioP1;P1;durP2;ratioP2;P2;SDS_P1;SDS_P2;PMS_P1;PMS_P2;Temp;Humidity;BMP_temperature;BMP_pressure;BME280_temperature;BME280_humidity;BME280_pressure;Samples;Min_cycle;Max_cycle;Signal;HPM_P1;HPM_P2
2023/10/21 00:00:41;;;;;;;5.80;2.95;;;;;;;12.56;79.75;90611.00;2048437;70;20197;-75
2023/10/21 00:03:11;;;;;;;8.63;2.70;;;;;;;12.26;79.36;90571.59;2051235;70;20245;-76
2023/10/21 00:05:43;;;;;;;3.60;2.45;;;;;;;12.39;78.82;90600.78;2048611;70;20153;-75
2023/10/21 00:08:14;;;;;;;10.43;2.95;;;;;;;12.54;78.60;90630.69;2048939;70;20145;-75
2023/10/21 00:10:42;;;;;;;5.68;2.63;;;;;;;12.51;78.89;90626.44;2048376;70;20240;-75
2023/10/21 00:13:08;;;;;;;5.03;2.38;;;;;;;11.98;77.84;90566.06;2048183;70;20138;-76
2023/10/21 00:15:37;;;;;;;4.75;2.42;;;;;;;12.37;78.63;90612.75;2051224;70;20153;-75
2023/10/21 00:18:04;;;;;;;4.18;2.20;;;;;;;12.36;79.13;90627.50;2048815;70;20146;-75
2023/10/21 00:20:29;;;;;;;4.82;2.03;;;;;;;12.37;79.68;90626.84;2051005;70;20154;-74
2023/10/21 00:22:55;;;;;;;3.53;2.13;;;;;;;12.39;79.43;90637.44;2048999;70;20217;-74
2023/10/21 00:25:21;;;;;;;4.70;2.30;;;;;;;12.37;80.49;90638.13;2048528;70;20193;-74
2023/10/21 00:27:48;;;;;;;7.85;2.75;;;;;;;12.41;79.31;90632.56;2048529;70;20586;-75
2023/10/21 00:30:13;;;;;;;2.58;1.60;;;;;;;12.45;81.47;90658.03;2050915;70;20186;-74
2023/10/21 00:32:40;;;;;;;4.97;2.15;;;;;;;12.06;82.69;90656.50;2048644;70;20155;-74
2023/10/21 00:35:06;;;;;;;4.43;2.13;;;;;;;12.13;81.79;90657.34;2048394;70;20147;-74
2023/10/21 00:37:31;;;;;;;5.63;2.38;;;;;;;12.19;80.85;90651.84;2048296;70;20314;-74
2023/10/21 00:39:57;;;;;;;5.60;2.20;;;;;;;12.28;80.11;90659.09;2048506;70;20158;-75
2023/10/21 00:42:22;;;;;;;7.07;2.05;;;;;;;12.21;81.04;90660.34;2047714;70;20146;-75
2023/10/21 00:44:48;;;;;;;6.07;2.30;;;;;;;12.25;80.97;90657.59;2051118;70;20170;-74
2023/10/21 00:47:15;;;;;;;5.20;1.75;;;;;;;12.32;80.32;90664.09;2047909;70;20138;-74
2023/10/21 00:49:42;;;;;;;3.95;2.10;;;;;;;12.26;79.64;90673.13;2048723;70;20142;-75
2023/10/21 00:52:10;;;;;;;4.07;1.90;;;;;;;12.28;79.25;90686.56;2048415;70;20150;-75
2023/10/21 00:54:35;;;;;;;6.38;2.80;;;;;;;11.76;81.32;90692.41;2048249;70;20146;-75
2023/10/21 00:57:01;;;;;;;8.68;3.50;;;;;;;11.91;80.84;90706.19;2048093;70;20147;-75
2023/10/21 00:59:30;;;;;;;6.72;3.00;;;;;;;12.02;80.08;90701.50;2048626;70;20254;-76
2023/10/21 01:01:56;;;;;;;5.93;2.80;;;;;;;12.02;80.08;90701.50;2048493;70;20226;-73
2023/10/21 01:04:22;;;;;;;5.72;2.40;;;;;;;11.98;80.10;90717.63;2048149;70;20130;-74
2023/10/21 01:06:48;;;;;;;6.40;2.72;;;;;;;11.92;81.31;90724.53;2048723;70;20541;-74
2023/10/21 01:09:17;;;;;;;8.13;2.67;;;;;;;11.94;80.51;90718.94;2050785;70;20233;-73
2023/10/21 01:11:43;;;;;;;5.28;2.70;;;;;;;11.93;79.95;90720.34;2045412;70;20207;-75
2023/10/21 01:14:09;;;;;;;7.43;2.50;;;;;;;11.96;80.00;90721.13;2050609;70;20249;-74
2023/10/21 01:16:35;;;;;;;4.03;2.70;;;;;;;12.01;80.06;90733.22;2048753;70;20526;-77
2023/10/21 01:19:01;;;;;;;4.50;2.50;;;;;;;11.95;81.19;90725.28;2048572;70;20246;-76
2023/10/21 01:21:26;;;;;;;5.78;2.55;;;;;;;11.47;83.95;90741.69;2047959;70;20233;-75
2023/10/21 01:23:52;;;;;;;5.15;2.50;;;;;;;11.68;82.11;90726.72;2048545;70;20164;-77
2023/10/21 01:26:18;;;;;;;5.72;2.10;;;;;;;11.71;81.79;90722.56;2048255;70;20395;-76
2023/10/21 01:28:44;;;;;;;5.22;2.20;;;;;;;11.84;80.56;90718.00;2048386;70;20174;-74
2023/10/21 01:31:10;;;;;;;5.80;2.33;;;;;;;11.87;80.60;90728.66;2048196;70;20147;-76
2023/10/21 01:33:37;;;;;;;3.90;1.90;;;;;;;11.92;80.43;90724.53;2048523;70;20165;-75
2023/10/21 01:36:04;;;;;;;3.55;2.10;;;;;;;11.89;81.11;90723.06;2051010;70;20134;-74
2023/10/21 01:38:30;;;;;;;3.55;2.10;;;;;;;11.87;80.98;90734.28;2045323;70;20603;-75
2023/10/21 01:40:55;;;;;;;4.38;1.80;;;;;;;11.78;81.41;90724.19;2050719;70;20142;-75
2023/10/21 01:43:21;;;;;;;3.47;1.95;;;;;;;11.80;81.67;90727.03;2047996;70;20158;-76
2023/10/21 01:45:47;;;;;;;3.20;1.60;;;;;;;11.78;81.19;90718.53;2048312;70;20611;-77
2023/10/21 01:48:13;;;;;;;3.30;1.50;;;;;;;11.90;80.68;90738.56;2046095;70;20149;-76
2023/10/21 01:50:39;;;;;;;3.25;1.20;;;;;;;11.76;81.71;90741.03;2048615;70;20249;-76
2023/10/21 01:53:05;;;;;;;1.77;1.40;;;;;;;11.76;80.62;90741.03;2049322;70;20154;-74
2023/10/21 01:55:33;;;;;;;3.83;1.20;;;;;;;11.82;80.70;90752.50;2048912;70;20312;-75
2023/10/21 01:58:00;;;;;;;4.05;2.42;;;;;;;11.24;83.32;90760.09;2049225;70;20268;-75
2023/10/21 02:00:25;;;;;;;6.80;3.97;;;;;;;11.45;81.59;90765.63;2048538;70;20697;-75
2023/10/21 02:02:55;;;;;;;4.57;2.40;;;;;;;11.62;81.07;90763.94;2049011;70;20204;-75
2023/10/21 02:05:22;;;;;;;6.35;2.75;;;;;;;11.57;81.16;90764.50;2048661;70;20158;-74
2023/10/21 02:07:49;;;;;;;2.92;2.08;;;;;;;11.60;81.10;90758.25;2048806;70;20179;-74
2023/10/21 02:10:17;;;;;;;3.78;2.17;;;;;;;11.54;81.06;90752.44;2048404;70;20580;-74
2023/10/21 02:12:42;;;;;;;4.47;1.70;;;;;;;11.59;81.00;90767.34;2048435;70;20139;-75
2023/10/21 02:15:14;;;;;;;3.88;1.90;;;;;;;11.60;81.26;90780.06;2048600;70;20229;-74
2023/10/21 02:17:46;;;;;;;4.27;1.87;;;;;;;11.63;80.45;90776.63;2048977;70;20245;-75
2023/10/21 02:20:14;;;;;;;6.03;1.90;;;;;;;11.57;81.08;90784.22;2048576;70;20154;-75
2023/10/21 02:22:41;;;;;;;5.38;2.20;;;;;;;11.63;80.09;90787.19;2051021;70;20158;-75
2023/10/21 02:25:14;;;;;;;7.50;2.67;;;;;;;11.64;79.33;90802.72;2048788;70;20208;-74
2023/10/21 02:27:40;;;;;;;;;;;;;;;11.62;80.23;90806.19;2048729;70;20138;-75
2023/10/21 02:30:08;;;;;;;4.93;2.60;;;;;;;11.55;80.26;90798.25;2051499;70;20059;-74
2023/10/21 02:32:34;;;;;;;5.80;2.45;;;;;;;11.51;79.71;90810.13;2049168;70;20173;-76
2023/10/21 02:34:59;;;;;;;5.13;2.30;;;;;;;11.37;81.10;90821.75;2048626;70;20523;-74
2023/10/21 02:37:27;;;;;;;3.65;2.20;;;;;;;11.43;80.53;90824.72;2051510;70;20147;-75
2023/10/21 02:39:54;;;;;;;3.78;2.10;;;;;;;11.37;80.07;90821.03;2049094;70;20153;-76
2023/10/21 02:42:20;;;;;;;3.35;1.90;;;;;;;11.37;80.60;90821.03;2049519;70;20606;-74
2023/10/21 02:45:01;;;;;;;2.67;1.88;;;;;;;11.46;80.52;90831.13;2051709;70;20174;-74
2023/10/21 02:47:27;;;;;;;3.83;1.75;;;;;;;11.34;80.74;90831.50;2049372;70;20614;-77
2023/10/21 02:49:53;;;;;;;3.45;1.83;;;;;;;11.29;81.33;90841.22;2051662;70;20137;-73
2023/10/21 02:52:19;;;;;;;4.32;1.90;;;;;;;11.36;80.84;90847.72;2048734;70;20167;-74
2023/10/21 02:54:45;;;;;;;4.60;1.98;;;;;;;11.19;82.68;90852.91;2049047;70;20499;-75
2023/10/21 02:57:11;;;;;;;4.03;1.83;;;;;;;11.35;81.73;90854.75;2048726;70;20142;-74
2023/10/21 02:59:37;;;;;;;6.20;2.20;;;;;;;11.42;80.88;90859.91;2048292;70;20182;-74
2023/10/21 03:02:04;;;;;;;2.92;1.70;;;;;;;11.47;79.09;90854.38;2051244;70;20165;-75
2023/10/21 03:04:30;;;;;;;3.80;1.70;;;;;;;11.23;80.82;90862.88;2051506;70;20158;-74
2023/10/21 03:06:56;;;;;;;3.22;1.63;;;;;;;11.32;81.16;90873.00;2048672;70;20214;-75
2023/10/21 03:09:22;;;;;;;3.83;1.63;;;;;;;11.37;80.72;90871.72;2051399;70;20177;-75
2023/10/21 03:11:47;;;;;;;4.32;2.00;;;;;;;11.45;80.26;90866.31;2048619;70;20238;-77
2023/10/21 03:14:14;;;;;;;4.13;1.98;;;;;;;11.50;80.19;90862.25;2048520;70;20499;-75
2023/10/21 03:16:43;;;;;;;4.75;2.10;;;;;;;11.51;79.12;90865.78;2049254;70;20138;-74
2023/10/21 03:19:08;;;;;;;4.63;1.98;;;;;;;11.43;80.13;90866.97;2048579;70;20197;-74
2023/10/21 03:21:34;;;;;;;6.70;2.10;;;;;;;11.42;80.50;90876.09;2051026;70;20249;-74
2023/10/21 03:24:00;;;;;;;3.63;1.50;;;;;;;11.38;80.64;90873.88;2049250;70;20154;-75
2023/10/21 03:26:26;;;;;;;3.35;1.63;;;;;;;11.36;81.60;90879.47;2049132;70;20242;-74
2023/10/21 03:28:52;;;;;;;3.03;2.20;;;;;;;10.80;83.90;90875.66;2049146;70;20679;-74
2023/10/21 03:31:18;;;;;;;6.13;3.35;;;;;;;11.17;81.78;90881.00;2048321;70;20146;-75
2023/10/21 03:33:47;;;;;;;5.95;3.67;;;;;;;11.35;81.32;90882.91;2048873;70;20591;-74
2023/10/21 03:36:12;;;;;;;9.63;3.10;;;;;;;11.37;80.98;90894.25;2049166;70;20257;-74
2023/10/21 03:38:38;;;;;;;6.18;2.85;;;;;;;11.41;80.22;90897.91;2051381;70;20680;-75
2023/10/21 03:41:11;;;;;;;4.45;2.90;;;;;;;11.45;80.78;90902.94;2048936;70;20538;-75
2023/10/21 03:43:38;;;;;;;7.47;4.03;;;;;;;11.49;80.11;90905.16;2048848;70;20237;-75
2023/10/21 03:46:09;;;;;;;4.68;2.60;;;;;;;11.40;79.91;90887.28;2049220;70;20213;-75
2023/10/21 03:48:35;;;;;;;4.57;1.90;;;;;;;11.43;79.39;90895.16;2048990;70;20179;-77
2023/10/21 03:51:11;;;;;;;8.73;5.07;;;;;;;10.87;82.70;90908.97;2044950;70;20197;-75
2023/10/21 03:53:41;;;;;;;9.05;4.60;;;;;;;11.05;81.75;90914.44;2049058;70;20578;-76
2023/10/21 03:56:09;;;;;;;10.93;4.85;;;;;;;11.11;81.11;90909.00;2048595;70;20167;-77
2023/10/21 03:58:35;;;;;;;8.90;4.40;;;;;;;11.20;80.73;90909.97;2048878;70;20154;-77
2023/10/21 04:01:01;;;;;;;8.15;4.38;;;;;;;11.26;80.59;90917.88;2049131;70;20506;-76
2023/10/21 04:03:27;;;;;;;8.40;4.10;;;;;;;11.27;80.44;90920.03;2048488;70;20689;-76
2023/10/21 04:05:55;;;;;;;8.45;4.13;;;;;;;11.19;79.47;90928.97;2048683;70;20594;-76
2023/10/21 04:08:21;;;;;;;8.02;4.28;;;;;;;11.17;80.89;90920.44;2049081;70;20147;-76
2023/10/21 04:10:47;;;;;;;7.90;4.20;;;;;;;11.25;80.10;90930.50;2049189;70;20578;-76
2023/10/21 04:13:12;;;;;;;6.45;4.25;;;;;;;11.27;80.13;90930.56;2049025;70;20677;-76
2023/10/21 04:15:39;;;;;;;4.82;3.40;;;;;;;11.29;79.68;90930.63;2049112;70;20237;-77
2023/10/21 04:18:05;;;;;;;7.40;4.03;;;;;;;11.29;79.88;90937.00;2049285;70;20145;-76
2023/10/21 04:20:31;;;;;;;7.78;4.80;;;;;;;11.25;79.94;90924.88;2049195;70;20166;-76
2023/10/21 04:22:58;;;;;;;7.65;4.28;;;;;;;11.29;79.79;90931.34;2049319;70;20242;-77
2023/10/21 04:25:23;;;;;;;8.82;4.47;;;;;;;11.26;79.74;90943.94;2048990;70;20146;-76
2023/10/21 04:27:49;;;;;;;13.65;7.03;;;;;;;11.23;79.74;90945.25;2048905;70;20153;-76
2023/10/21 04:30:15;;;;;;;25.30;13.82;;;;;;;11.19;79.87;90943.03;2049053;70;20139;-77
2023/10/21 04:32:41;;;;;;;8.55;4.57;;;;;;;11.09;80.86;90933.56;2049045;70;20202;-78
2023/10/21 04:35:08;;;;;;;8.48;2.97;;;;;;;11.16;80.63;90938.72;2049081;70;20221;-76
2023/10/21 04:37:35;;;;;;;4.70;2.40;;;;;;;11.23;79.29;90941.72;2048401;70;20596;-76
2023/10/21 04:40:01;;;;;;;9.38;5.40;;;;;;;10.80;81.33;90943.94;2048987;70;20238;-76
2023/10/21 04:42:26;;;;;;;8.48;5.00;;;;;;;10.90;80.49;90941.44;2048850;70;20171;-76
2023/10/21 04:44:53;;;;;;;8.63;4.30;;;;;;;10.83;81.26;90951.06;2048433;70;20154;-76
2023/10/21 04:47:18;;;;;;;8.18;3.95;;;;;;;10.96;79.96;90957.81;2049013;70;20740;-76
2023/10/21 04:49:44;;;;;;;7.70;3.92;;;;;;;10.99;79.81;90956.47;2049349;70;20162;-76
2023/10/21 04:52:12;;;;;;;6.75;3.45;;;;;;;10.98;80.45;90957.88;2049217;70;20147;-76
2023/10/21 04:54:38;;;;;;;3.50;2.40;;;;;;;10.95;80.03;90962.00;2049023;70;20610;-77
2023/10/21 04:57:04;;;;;;;5.50;2.85;;;;;;;10.97;80.51;90964.88;2048914;70;20178;-76
2023/10/21 04:59:29;;;;;;;5.88;2.60;;;;;;;10.92;80.16;90963.31;2048714;70;20245;-76
2023/10/21 05:01:56;;;;;;;5.25;2.40;;;;;;;10.88;79.71;90966.72;2048433;70;20536;-76
2023/10/21 05:04:22;;;;;;;6.55;3.88;;;;;;;10.76;80.62;90977.56;2049130;70;20158;-77
2023/10/21 05:06:48;;;;;;;7.10;3.60;;;;;;;10.78;80.14;90980.47;2049026;70;20271;-77
2023/10/21 05:09:16;;;;;;;6.57;4.18;;;;;;;10.73;79.96;90992.25;2048608;70;20265;-76
2023/10/21 05:11:41;;;;;;;10.27;4.40;;;;;;;10.72;80.09;91002.78;2049045;70;20151;-76
2023/10/21 05:14:07;;;;;;;5.85;3.88;;;;;;;10.75;79.93;91014.81;2048639;70;20204;-76
2023/10/21 05:16:33;;;;;;;8.82;4.07;;;;;;;10.67;80.28;91006.81;2048983;70;20182;-76
2023/10/21 05:18:58;;;;;;;6.10;3.88;;;;;;;10.65;79.90;91006.75;2049377;70;20654;-77
2023/10/21 05:21:24;;;;;;;5.30;3.50;;;;;;;10.66;79.99;91020.16;2049284;70;20148;-76
2023/10/21 05:23:51;;;;;;;15.27;6.47;;;;;;;10.61;79.36;91020.69;2049363;70;20146;-76
2023/10/21 05:26:18;;;;;;;7.75;3.70;;;;;;;10.53;79.91;91012.69;2049467;70;20217;-77
2023/10/21 05:28:44;;;;;;;10.18;4.55;;;;;;;10.50;80.42;91025.25;2049131;70;20131;-76
2023/10/21 05:31:10;;;;;;;27.48;11.10;;;;;;;10.42;80.61;91019.34;2049124;70;20143;-77
2023/10/21 05:33:36;;;;;;;27.70;12.07;;;;;;;10.14;82.67;91028.22;2049480;70;20153;-77
2023/10/21 05:36:03;;;;;;;24.33;10.85;;;;;;;10.31;81.34;91032.34;2049460;70;20520;-77
2023/10/21 05:38:28;;;;;;;24.75;10.43;;;;;;;10.38;80.54;91042.44;2049465;70;20201;-77
2023/10/21 05:40:56;;;;;;;19.80;9.75;;;;;;;10.36;81.01;91047.28;2049412;70;20166;-77
2023/10/21 05:43:21;;;;;;;15.85;8.50;;;;;;;10.39;80.03;91045.97;2049317;70;20151;-77
2023/10/21 05:45:47;;;;;;;16.58;9.35;;;;;;;10.35;79.59;91054.25;2049148;70;20138;-77
2023/10/21 05:48:12;;;;;;;17.60;9.73;;;;;;;10.36;80.98;91052.91;2048897;70;20142;-76
2023/10/21 05:50:39;;;;;;;16.30;6.97;;;;;;;10.29;80.18;91035.09;2049415;70;20154;-76
2023/10/21 05:53:05;;;;;;;12.85;6.88;;;;;;;10.14;81.76;91056.34;2049050;70;20211;-77
2023/10/21 05:55:30;;;;;;;12.68;6.47;;;;;;;10.26;81.09;91081.38;2049408;70;20590;-78
2023/10/21 05:57:56;;;;;;;11.98;6.50;;;;;;;10.35;79.97;91085.19;2049124;70;20146;-76
2023/10/21 06:00:22;;;;;;;6.40;4.00;;;;;;;10.37;80.70;91076.84;2048960;70;20143;-77
2023/10/21 06:02:48;;;;;;;7.88;3.70;;;;;;;10.39;79.25;91072.00;2049033;70;20147;-77
2023/10/21 06:05:14;;;;;;;41.63;13.95;;;;;;;10.21;82.43;91087.47;2049366;70;20209;-76
2023/10/21 06:07:40;;;;;;;22.83;10.38;;;;;;;10.07;82.89;91093.31;2049125;70;20192;-77
2023/10/21 06:10:07;;;;;;;19.17;10.52;;;;;;;10.15;82.00;91087.97;2049418;70;20607;-76
2023/10/21 06:12:33;;;;;;;11.80;7.47;;;;;;;10.27;82.04;91085.66;2049289;70;20201;-75
2023/10/21 06:14:59;;;;;;;13.10;7.45;;;;;;;10.32;81.53;91086.50;2049053;70;20162;-76
2023/10/21 06:17:25;;;;;;;11.35;6.53;;;;;;;10.26;82.24;91092.63;2048277;70;20179;-75
2023/10/21 06:19:52;;;;;;;10.20;6.00;;;;;;;10.30;80.35;91086.44;2049331;70;20261;-75
2023/10/21 06:22:18;;;;;;;12.95;5.35;;;;;;;10.07;83.21;91102.44;2049069;70;20146;-75
2023/10/21 06:24:45;;;;;;;10.38;6.70;;;;;;;10.11;83.32;91107.50;2049065;70;20162;-75
2023/10/21 06:27:12;;;;;;;8.82;5.93;;;;;;;10.35;81.77;91119.66;2049208;70;20170;-76
2023/10/21 06:29:38;;;;;;;14.48;6.03;;;;;;;10.48;81.07;91132.09;2049158;70;20524;-74
2023/10/21 06:32:06;;;;;;;11.02;5.57;;;;;;;10.56;80.87;91148.53;2051311;70;20158;-76
2023/10/21 06:34:35;;;;;;;13.13;5.78;;;;;;;10.51;81.24;91146.97;2048945;70;20590;-76
2023/10/21 06:37:00;;;;;;;8.40;4.60;;;;;;;10.63;80.60;91148.13;2048504;70;20615;-76
2023/10/21 06:39:26;;;;;;;7.72;4.40;;;;;;;10.81;80.11;91155.75;2051552;70;20153;-76
2023/10/21 06:41:52;;;;;;;16.92;8.95;;;;;;;10.59;81.73;91150.06;2049280;70;20270;-77
2023/10/21 06:44:17;;;;;;;48.13;18.15;;;;;;;10.74;80.09;91145.66;2049196;70;20166;-76
2023/10/21 06:46:43;;;;;;;66.43;19.45;;;;;;;10.77;79.49;91152.81;2049318;70;20149;-77
2023/10/21 06:49:09;;;;;;;26.65;14.32;;;;;;;10.23;83.29;91161.41;2049124;70;20634;-77
2023/10/21 06:51:38;;;;;;;24.65;13.80;;;;;;;10.51;82.18;91158.22;2049500;70;20177;-77
2023/10/21 06:54:05;;;;;;;27.23;14.38;;;;;;;10.62;81.21;91155.09;2049215;70;20146;-76
2023/10/21 06:56:31;;;;;;;24.02;13.20;;;;;;;10.65;80.97;91155.91;2049296;70;20163;-76
2023/10/21 06:58:57;;;;;;;24.55;11.55;;;;;;;10.72;81.00;91165.28;2048942;70;20623;-75
2023/10/21 07:01:23;;;;;;;17.50;10.20;;;;;;;10.76;79.85;91166.13;2051187;70;20143;-76
2023/10/21 07:03:49;;;;;;;19.70;9.63;;;;;;;10.72;80.29;91168.09;2048964;70;20150;-75
2023/10/21 07:06:16;;;;;;;15.77;9.52;;;;;;;10.76;80.43;91177.41;2048849;70;20534;-76
2023/10/21 07:08:42;;;;;;;17.52;10.07;;;;;;;10.80;80.04;91177.53;2049250;70;20142;-76
2023/10/21 07:11:08;;;;;;;15.43;9.60;;;;;;;10.87;79.54;91179.22;2049033;70;20613;-75
2023/10/21 07:13:34;;;;;;;30.55;14.60;;;;;;;10.86;79.58;91188.31;2048948;70;20619;-76
2023/10/21 07:16:12;;;;;;;48.83;23.33;;;;;;;11.01;79.87;91195.88;2049157;70;20222;-74
2023/10/21 07:18:39;;;;;;;57.67;28.10;;;;;;;11.15;79.92;91201.28;2049060;70;20146;-77
2023/10/21 07:21:07;;;;;;;46.78;24.20;;;;;;;11.22;79.45;91191.66;2049279;70;20147;-75
2023/10/21 07:23:33;;;;;;;45.00;20.83;;;;;;;11.25;79.46;91190.34;2051600;70;20163;-75
2023/10/21 07:25:59;;;;;;;40.55;19.20;;;;;;;11.30;78.88;91196.84;2049008;70;20252;-75
2023/10/21 07:28:25;;;;;;;36.72;17.08;;;;;;;11.35;79.05;91192.78;2051242;70;20195;-77
2023/10/21 07:30:52;;;;;;;26.63;13.30;;;;;;;11.30;78.76;91194.75;2048956;70;20178;-74
2023/10/21 07:33:17;;;;;;;22.13;12.23;;;;;;;11.36;79.15;91197.06;2049144;70;20193;-75
2023/10/21 07:35:43;;;;;;;21.48;10.68;;;;;;;11.45;78.33;91196.69;2048661;70;20142;-77
2023/10/21 07:38:09;;;;;;;19.10;9.88;;;;;;;11.43;78.10;91195.88;2048459;70;20531;-76
2023/10/21 07:40:34;;;;;;;40.50;19.08;;;;;;;10.99;79.96;91204.25;2048660;70;20146;-75
2023/10/21 07:43:01;;;;;;;35.67;17.85;;;;;;;11.08;79.49;91200.34;2048715;70;20151;-74
2023/10/21 07:45:28;;;;;;;23.38;12.02;;;;;;;11.23;78.98;91198.75;2049257;70;20594;-77
2023/10/21 07:47:54;;;;;;;16.52;9.07;;;;;;;11.10;78.73;91196.88;2049017;70;20604;-77
2023/10/21 07:50:20;;;;;;;16.58;8.57;;;;;;;11.19;79.10;91213.41;2048542;70;20161;-77
2023/10/21 07:52:45;;;;;;;16.30;9.88;;;;;;;11.18;78.97;91208.44;2048786;70;20153;-75
2023/10/21 07:55:12;;;;;;;20.00;10.73;;;;;;;11.07;80.03;91209.44;2049112;70;20678;-76
2023/10/21 07:57:39;;;;;;;18.10;9.77;;;;;;;11.26;79.59;91199.53;2048823;70;20157;-76
2023/10/21 08:00:05;;;;;;;16.23;8.63;;;;;;;11.38;77.76;91203.50;2051388;70;20241;-76
2023/10/21 08:02:32;;;;;;;15.88;9.18;;;;;;;11.48;78.18;91216.47;2048513;70;20142;-74
2023/10/21 08:04:57;;;;;;;12.07;7.40;;;;;;;11.55;78.23;91221.66;2049147;70;20147;-74
2023/10/21 08:07:23;;;;;;;11.43;6.60;;;;;;;12.04;81.18;91216.91;2049500;70;20770;-75
2023/10/21 08:09:49;;;;;;;9.35;6.30;;;;;;;12.26;80.89;91226.06;2051510;70;20174;-78
2023/10/21 08:12:15;;;;;;;8.98;5.68;;;;;;;12.31;78.12;91235.38;2048916;70;20298;-75
2023/10/21 08:14:40;;;;;;;11.98;5.85;;;;;;;12.48;78.12;91242.25;2049011;70;20154;-76
2023/10/21 08:17:07;;;;;;;9.48;5.18;;;;;;;12.88;76.29;91234.97;2049026;70;20166;-77
2023/10/21 08:19:34;;;;;;;12.15;6.72;;;;;;;13.01;75.31;91230.38;2048618;70;20221;-79
2023/10/21 08:22:03;;;;;;;12.50;7.00;;;;;;;13.29;75.09;91230.50;2049162;70;20178;-76
2023/10/21 08:24:31;;;;;;;11.07;6.30;;;;;;;13.71;74.36;91239.38;2048663;70;20182;-77
2023/10/21 08:26:56;;;;;;;8.15;5.13;;;;;;;13.83;72.68;91246.72;2049167;70;20211;-77
2023/10/21 08:29:22;;;;;;;10.77;5.90;;;;;;;14.23;72.02;91241.38;2048768;70;20154;-75
2023/10/21 08:31:48;;;;;;;10.27;5.68;;;;;;;14.97;71.08;91244.47;2049212;70;20515;-75
2023/10/21 08:34:13;;;;;;;15.60;9.10;;;;;;;14.80;69.70;91250.47;2048642;70;20603;-77
2023/10/21 08:36:40;;;;;;;12.02;7.90;;;;;;;15.14;69.88;91236.31;2049244;70;20173;-76
2023/10/21 08:39:07;;;;;;;9.43;5.60;;;;;;;15.62;67.17;91225.22;2049330;70;20588;-75
2023/10/21 08:41:38;;;;;;;7.22;4.28;;;;;;;15.99;66.26;91220.25;2049126;70;20235;-75
2023/10/21 08:44:05;;;;;;;8.05;5.32;;;;;;;15.56;67.32;91227.22;2049112;70;20200;-77
2023/10/21 08:46:37;;;;;;;8.38;5.38;;;;;;;16.40;64.43;91220.88;2048911;70;20153;-76
2023/10/21 08:49:04;;;;;;;8.13;5.15;;;;;;;16.87;66.07;91219.50;2048292;70;20137;-75
2023/10/21 08:51:33;;;;;;;7.32;4.80;;;;;;;17.25;64.01;91219.28;2049072;70;20154;-77
2023/10/21 08:54:03;;;;;;;4.90;4.05;;;;;;;17.49;63.27;91235.94;2049106;70;20539;-78
2023/10/21 08:56:30;;;;;;;4.60;2.50;;;;;;;18.12;59.66;91232.38;2048487;70;20500;-76
2023/10/21 08:58:59;;;;;;;5.55;4.40;;;;;;;17.85;60.74;91240.63;2049035;70;20273;-77
2023/10/21 09:01:25;;;;;;;5.47;3.95;;;;;;;18.13;61.65;91240.19;2049191;70;20245;-75
2023/10/21 09:03:51;;;;;;;5.50;3.35;;;;;;;18.50;59.78;91231.97;2049183;70;20229;-79
2023/10/21 09:06:17;;;;;;;6.78;4.00;;;;;;;17.91;60.60;91234.28;2048306;70;20221;-75
2023/10/21 09:08:44;;;;;;;6.47;3.20;;;;;;;19.04;59.12;91236.69;2048535;70;20568;-76
2023/10/21 09:11:13;;;;;;;4.78;2.67;;;;;;;19.08;59.68;91239.56;2048928;70;20170;-75
2023/10/21 09:13:40;;;;;;;3.45;2.25;;;;;;;18.84;58.31;91245.09;2048862;70;20636;-75
2023/10/21 09:16:25;;;;;;;7.30;4.45;;;;;;;19.13;58.27;91251.72;2048908;70;20750;-76
2023/10/21 09:19:04;;;;;;;10.25;6.38;;;;;;;19.64;57.86;91247.00;2048818;70;20530;-76
2023/10/21 09:21:39;;;;;;;4.32;3.15;;;;;;;19.98;56.56;91252.13;2048742;70;20253;-77
2023/10/21 09:24:10;;;;;;;4.00;2.70;;;;;;;20.74;54.97;91250.13;2048940;70;20515;-78
2023/10/21 09:26:45;;;;;;;3.50;2.33;;;;;;;21.50;53.84;91253.66;2049024;70;20146;-75
2023/10/21 09:29:12;;;;;;;4.50;1.85;;;;;;;21.65;52.46;91256.47;2048919;70;20159;-75
2023/10/21 09:31:48;;;;;;;2.92;1.73;;;;;;;21.71;51.96;91253.56;2048800;70;20221;-75
2023/10/21 09:34:21;;;;;;;3.55;1.85;;;;;;;22.33;51.03;91246.16;2048942;70;20178;-77
2023/10/21 09:36:47;;;;;;;2.65;1.67;;;;;;;21.87;51.10;91233.47;2048771;70;20154;-76
2023/10/21 09:39:13;;;;;;;1.80;1.50;;;;;;;22.25;51.26;91237.59;2048836;70;20155;-78
2023/10/21 09:41:40;;;;;;;2.42;1.77;;;;;;;22.97;50.02;91244.31;2048400;70;20134;-78
2023/10/21 09:44:07;;;;;;;3.45;1.80;;;;;;;22.50;48.96;91246.78;2048748;70;20218;-76
2023/10/21 09:46:36;;;;;;;2.90;1.38;;;;;;;22.91;48.92;91249.38;2048872;70;20237;-76
2023/10/21 09:49:05;;;;;;;1.75;1.50;;;;;;;23.75;47.68;91243.59;2049153;70;20575;-78
2023/10/21 09:51:37;;;;;;;2.65;1.40;;;;;;;24.24;47.25;91243.00;2049098;70;20165;-78
2023/10/21 09:54:11;;;;;;;3.50;1.85;;;;;;;24.79;44.55;91245.13;2049010;70;20241;-77
2023/10/21 09:56:39;;;;;;;3.05;1.67;;;;;;;24.98;44.54;91246.28;2048485;70;20271;-76
2023/10/21 09:59:06;;;;;;;4.53;1.60;;;;;;;24.27;44.38;91250.84;2048367;70;20146;-75
2023/10/21 10:01:33;;;;;;;5.38;1.77;;;;;;;23.00;46.38;91245.72;2048972;70;20166;-77
2023/10/21 10:04:01;;;;;;;2.95;1.60;;;;;;;22.46;47.72;91247.53;2048897;70;20166;-76
2023/10/21 10:06:28;;;;;;;2.75;1.70;;;;;;;21.37;49.51;91237.22;2049540;70;20155;-75
2023/10/21 10:08:55;;;;;;;1.92;1.40;;;;;;;22.16;49.63;91234.06;2049590;70;20586;-75
2023/10/21 10:11:24;;;;;;;3.13;1.80;;;;;;;23.21;47.88;91236.91;2049484;70;20145;-77
2023/10/21 10:13:50;;;;;;;3.55;1.60;;;;;;;24.64;45.04;91238.16;2049249;70;20249;-78
2023/10/21 10:16:24;;;;;;;3.65;1.40;;;;;;;25.32;43.52;91239.25;2049371;70;20494;-76
2023/10/21 10:18:51;;;;;;;2.65;1.50;;;;;;;25.32;42.85;91247.19;2049099;70;20396;-75
2023/10/21 10:21:18;;;;;;;1.50;1.10;;;;;;;23.99;43.82;91239.72;2049108;70;20158;-76
2023/10/21 10:24:00;;;;;;;3.92;1.00;;;;;;;24.99;43.23;91232.59;2049514;70;20142;-77
2023/10/21 10:26:37;;;;;;;1.30;0.85;;;;;;;26.56;40.51;91238.34;2049422;70;20261;-75
2023/10/21 10:29:19;;;;;;;1.63;1.00;;;;;;;28.16;37.97;91238.06;2049341;70;20193;-77
2023/10/21 10:32:16;;;;;;;3.97;1.02;;;;;;;29.22;35.84;91241.44;2049116;70;20169;-75
2023/10/21 10:34:53;;;;;;;2.78;0.90;;;;;;;28.24;36.40;91238.53;2049482;70;20530;-75
2023/10/21 10:37:35;;;;;;;2.05;0.90;;;;;;;29.79;36.13;91236.00;2049440;70;20190;-75
2023/10/21 10:40:18;;;;;;;1.77;1.00;;;;;;;29.71;33.99;91230.47;2048699;70;20151;-75
2023/10/21 10:42:44;;;;;;;1.35;1.05;;;;;;;29.38;35.07;91234.44;2048993;70;20293;-76
2023/10/21 10:45:11;;;;;;;2.08;1.08;;;;;;;30.80;34.10;91239.69;2051343;70;20174;-76
2023/10/21 10:47:40;;;;;;;1.55;0.90;;;;;;;30.03;34.82;91238.03;2049110;70;20158;-77
2023/10/21 10:50:12;;;;;;;2.03;0.93;;;;;;;28.98;35.60;91227.75;2049320;70;20146;-76
2023/10/21 10:52:38;;;;;;;2.00;1.10;;;;;;;29.71;34.70;91236.97;2049485;70;20147;-76
2023/10/21 10:55:08;;;;;;;2.30;0.95;;;;;;;29.85;33.68;91229.97;2049275;70;20158;-76
2023/10/21 10:57:34;;;;;;;1.30;0.90;;;;;;;31.37;34.09;91234.56;2049183;70;20157;-78
2023/10/21 11:00:00;;;;;;;2.53;1.08;;;;;;;26.91;37.96;91229.63;2049249;70;20546;-77
2023/10/21 11:02:28;;;;;;;1.65;0.90;;;;;;;28.67;35.80;91219.94;2049262;70;20134;-77
2023/10/21 11:04:59;;;;;;;1.65;1.02;;;;;;;26.89;37.50;91223.19;2049099;70;20145;-79
2023/10/21 11:07:31;;;;;;;3.25;1.20;;;;;;;29.09;35.03;91234.63;2049411;70;20146;-78
2023/10/21 11:10:01;;;;;;;1.00;0.90;;;;;;;28.98;35.28;91224.84;2049406;70;20138;-77
2023/10/21 11:12:27;;;;;;;1.50;1.10;;;;;;;29.72;34.54;91229.69;2049197;70;20496;-79
2023/10/21 11:14:53;;;;;;;2.22;0.73;;;;;;;32.62;31.61;91221.28;2049133;70;20602;-77
2023/10/21 11:17:19;;;;;;;2.97;0.85;;;;;;;35.00;29.85;91226.38;2048966;70;20214;-78
2023/10/21 11:19:45;;;;;;;1.17;0.70;;;;;;;34.37;30.11;91220.94;2049340;70;20162;-76
2023/10/21 11:22:26;;;;;;;1.42;0.80;;;;;;;30.18;32.59;91214.34;2048966;70;20150;-76
2023/10/21 11:24:53;;;;;;;2.90;0.60;;;;;;;31.28;31.49;91208.03;2049382;70;20459;-78
2023/10/21 11:27:18;;;;;;;1.10;0.50;;;;;;;35.65;29.56;91216.25;2048793;70;20677;-76
2023/10/21 11:29:47;;;;;;;1.55;0.80;;;;;;;31.43;30.14;91213.97;2049060;70;20127;-76
2023/10/21 11:32:14;;;;;;;0.90;0.68;;;;;;;32.35;29.97;91210.13;2049190;70;20139;-78